sensor_id;sensor_type;location;lat;lon;timestamp;P1;durP1;ratioP1;P2;durP2;ratioP2
19406;SDS011;9839;53.364;-1.204;2023-06-10T00:00:15;16.15;;;7.60;;
19406;SDS011;9839;53.364;-1.204;2023-06-10T00:02:41;14.23;;;6.78;;
19406;SDS011;9839;53.364;-1.204;2023-06-10T00:05:07;13.05;;;6.85;;
19406;SDS011;9839;53.364;-1.204;2023-06-10T00:07:33;25.52;;;7.35;;
19406;SDS011;9839;53.364;-1.204;2023-06-10T00:10:03;17.55;;;6.55;;
19406;SDS011;9839;53.364;-1.204;2023-06-10T00:12:32;18.15;;;7.18;;
19406;SDS011;9839;53.364;-1.204;2023-06-10T00:15:02;16.02;;;6.80;;
19406;SDS011;9839;53.364;-1.204;2023-06-10T00:17:28;14.68;;;7.45;;
19406;SDS011;9839;53.364;-1.204;2023-06-10T00:19:54;12.73;;;7.05;;
19406;SDS011;9839;53.364;-1.204;2023-06-10T00:22:20;19.42;;;8.10;;
19406;SDS011;9839;53.364;-1.204;2023-06-10T00:24:47;25.33;;;7.57;;
19406;SDS011;9839;53.364;-1.204;2023-06-10T00:27:12;18.13;;;7.68;;
19406;SDS011;9839;53.364;-1.204;2023-06-10T00:29:38;16.58;;;7.07;;
19406;SDS011;9839;53.364;-1.204;2023-06-10T00:32:04;17.05;;;7.80;;
19406;SDS011;9839;53.364;-1.204;2023-06-10T00:34:30;14.48;;;7.25;;
19406;SDS011;9839;53.364;-1.204;2023-06-10T00:36:55;20.88;;;9.07;;
19406;SDS011;9839;53.364;-1.204;2023-06-10T00:39:21;24.45;;;8.55;;
19406;SDS011;9839;53.364;-1.204;2023-06-10T00:41:46;24.60;;;9.52;;
19406;SDS011;9839;53.364;-1.204;2023-06-10T00:44:12;17.67;;;8.50;;
19406;SDS011;9839;53.364;-1.204;2023-06-10T00:46:37;26.42;;;10.48;;
19406;SDS011;9839;53.364;-1.204;2023-06-10T00:49:03;21.80;;;10.30;;
19406;SDS011;9839;53.364;-1.204;2023-06-10T00:51:28;20.23;;;10.43;;
19406;SDS011;9839;53.364;-1.204;2023-06-10T00:53:54;27.05;;;11.70;;
19406;SDS011;9839;53.364;-1.204;2023-06-10T00:56:20;20.38;;;11.13;;
19406;SDS011;9839;53.364;-1.204;2023-06-10T00:58:46;22.80;;;11.73;;
19406;SDS011;9839;53.364;-1.204;2023-06-10T01:01:12;27.60;;;12.07;;
19406;SDS011;9839;53.364;-1.204;2023-06-10T01:03:38;27.77;;;12.18;;
19406;SDS011;9839;53.364;-1.204;2023-06-10T01:08:55;25.08;;;11.07;;
19406;SDS011;9839;53.364;-1.204;2023-06-10T01:11:34;32.67;;;12.35;;
19406;SDS011;9839;53.364;-1.204;2023-06-10T01:14:16;22.75;;;11.80;;
19406;SDS011;9839;53.364;-1.204;2023-06-10T01:16:42;30.45;;;12.43;;
19406;SDS011;9839;53.364;-1.204;2023-06-10T01:19:11;25.08;;;12.23;;
19406;SDS011;9839;53.364;-1.204;2023-06-10T01:21:38;23.17;;;12.52;;
19406;SDS011;9839;53.364;-1.204;2023-06-10T01:24:04;31.20;;;11.90;;
19406;SDS011;9839;53.364;-1.204;2023-06-10T01:26:33;26.60;;;12.63;;
19406;SDS011;9839;53.364;-1.204;2023-06-10T01:29:02;24.98;;;11.73;;
19406;SDS011;9839;53.364;-1.204;2023-06-10T01:31:36;26.40;;;11.27;;
19406;SDS011;9839;53.364;-1.204;2023-06-10T01:34:08;25.83;;;10.68;;
19406;SDS011;9839;53.364;-1.204;2023-06-10T01:36:36;24.67;;;11.68;;
19406;SDS011;9839;53.364;-1.204;2023-06-10T01:39:02;26.73;;;11.48;;
19406;SDS011;9839;53.364;-1.204;2023-06-10T01:41:29;31.80;;;11.13;;
19406;SDS011;9839;53.364;-1.204;2023-06-10T01:43:55;30.13;;;11.07;;
19406;SDS011;9839;53.364;-1.204;2023-06-10T01:46:20;27.67;;;11.50;;
19406;SDS011;9839;53.364;-1.204;2023-06-10T01:48:46;26.90;;;12.23;;
19406;SDS011;9839;53.364;-1.204;2023-06-10T01:51:12;29.13;;;11.98;;
19406;SDS011;9839;53.364;-1.204;2023-06-10T01:53:37;26.45;;;11.95;;
19406;SDS011;9839;53.364;-1.204;2023-06-10T01:56:03;24.55;;;11.57;;
19406;SDS011;9839;53.364;-1.204;2023-06-10T01:58:28;34.85;;;12.40;;
19406;SDS011;9839;53.364;-1.204;2023-06-10T02:00:54;31.38;;;12.60;;
19406;SDS011;9839;53.364;-1.204;2023-06-10T02:03:19;24.83;;;12.25;;
19406;SDS011;9839;53.364;-1.204;2023-06-10T02:05:45;34.25;;;12.50;;
19406;SDS011;9839;53.364;-1.204;2023-06-10T02:08:10;29.15;;;13.25;;
19406;SDS011;9839;53.364;-1.204;2023-06-10T02:10:36;41.40;;;12.60;;
19406;SDS011;9839;53.364;-1.204;2023-06-10T02:13:01;29.30;;;12.30;;
19406;SDS011;9839;53.364;-1.204;2023-06-10T02:15:27;23.58;;;12.02;;
19406;SDS011;9839;53.364;-1.204;2023-06-10T02:17:52;25.33;;;11.77;;
19406;SDS011;9839;53.364;-1.204;2023-06-10T02:20:19;26.42;;;12.55;;
19406;SDS011;9839;53.364;-1.204;2023-06-10T02:22:46;24.88;;;12.30;;
19406;SDS011;9839;53.364;-1.204;2023-06-10T02:25:11;25.00;;;12.32;;
19406;SDS011;9839;53.364;-1.204;2023-06-10T02:27:37;35.03;;;12.57;;
19406;SDS011;9839;53.364;-1.204;2023-06-10T02:30:04;30.58;;;13.13;;
19406;SDS011;9839;53.364;-1.204;2023-06-10T02:32:29;28.63;;;12.48;;
19406;SDS011;9839;53.364;-1.204;2023-06-10T02:34:55;30.73;;;13.87;;
19406;SDS011;9839;53.364;-1.204;2023-06-10T02:37:20;39.72;;;13.52;;
19406;SDS011;9839;53.364;-1.204;2023-06-10T02:39:46;33.58;;;13.93;;
19406;SDS011;9839;53.364;-1.204;2023-06-10T02:42:11;32.47;;;12.48;;
19406;SDS011;9839;53.364;-1.204;2023-06-10T02:44:37;27.33;;;11.68;;
19406;SDS011;9839;53.364;-1.204;2023-06-10T02:47:03;32.50;;;13.32;;
19406;SDS011;9839;53.364;-1.204;2023-06-10T02:49:28;34.53;;;13.13;;
19406;SDS011;9839;53.364;-1.204;2023-06-10T02:51:54;33.65;;;12.10;;
19406;SDS011;9839;53.364;-1.204;2023-06-10T02:54:21;29.70;;;12.60;;
19406;SDS011;9839;53.364;-1.204;2023-06-10T02:56:50;27.80;;;12.73;;
19406;SDS011;9839;53.364;-1.204;2023-06-10T02:59:16;33.95;;;12.63;;
19406;SDS011;9839;53.364;-1.204;2023-06-10T03:01:42;30.17;;;13.77;;
19406;SDS011;9839;53.364;-1.204;2023-06-10T03:04:07;29.70;;;13.43;;
19406;SDS011;9839;53.364;-1.204;2023-06-10T03:06:33;28.67;;;12.40;;
19406;SDS011;9839;53.364;-1.204;2023-06-10T03:09:00;30.53;;;13.47;;
19406;SDS011;9839;53.364;-1.204;2023-06-10T03:11:26;29.33;;;12.10;;
19406;SDS011;9839;53.364;-1.204;2023-06-10T03:13:52;31.27;;;12.65;;
19406;SDS011;9839;53.364;-1.204;2023-06-10T03:16:19;32.05;;;12.55;;
19406;SDS011;9839;53.364;-1.204;2023-06-10T03:18:44;29.33;;;12.85;;
19406;SDS011;9839;53.364;-1.204;2023-06-10T03:21:10;30.05;;;13.80;;
19406;SDS011;9839;53.364;-1.204;2023-06-10T03:23:36;32.60;;;11.57;;
19406;SDS011;9839;53.364;-1.204;2023-06-10T03:26:01;30.20;;;12.32;;
19406;SDS011;9839;53.364;-1.204;2023-06-10T03:28:27;28.50;;;12.23;;
19406;SDS011;9839;53.364;-1.204;2023-06-10T03:30:52;33.70;;;11.65;;
19406;SDS011;9839;53.364;-1.204;2023-06-10T03:33:18;30.77;;;12.15;;
19406;SDS011;9839;53.364;-1.204;2023-06-10T03:35:43;28.80;;;11.57;;
19406;SDS011;9839;53.364;-1.204;2023-06-10T03:38:09;28.30;;;12.67;;
19406;SDS011;9839;53.364;-1.204;2023-06-10T03:40:34;39.50;;;13.38;;
19406;SDS011;9839;53.364;-1.204;2023-06-10T03:43:00;29.92;;;11.20;;
19406;SDS011;9839;53.364;-1.204;2023-06-10T03:45:25;32.27;;;12.13;;
19406;SDS011;9839;53.364;-1.204;2023-06-10T03:47:53;29.25;;;12.50;;
19406;SDS011;9839;53.364;-1.204;2023-06-10T03:50:18;29.17;;;12.47;;
19406;SDS011;9839;53.364;-1.204;2023-06-10T03:52:44;33.17;;;12.17;;
19406;SDS011;9839;53.364;-1.204;2023-06-10T03:55:10;25.53;;;11.47;;
19406;SDS011;9839;53.364;-1.204;2023-06-10T03:57:38;28.92;;;12.93;;
19406;SDS011;9839;53.364;-1.204;2023-06-10T04:00:04;39.75;;;12.38;;
19406;SDS011;9839;53.364;-1.204;2023-06-10T04:02:37;29.35;;;11.35;;
19406;SDS011;9839;53.364;-1.204;2023-06-10T04:05:02;28.80;;;12.18;;
19406;SDS011;9839;53.364;-1.204;2023-06-10T04:07:28;29.57;;;9.60;;
19406;SDS011;9839;53.364;-1.204;2023-06-10T04:09:53;29.75;;;12.63;;
19406;SDS011;9839;53.364;-1.204;2023-06-10T04:12:19;30.55;;;10.90;;
19406;SDS011;9839;53.364;-1.204;2023-06-10T04:14:44;32.05;;;11.40;;
19406;SDS011;9839;53.364;-1.204;2023-06-10T04:17:10;27.48;;;10.63;;
19406;SDS011;9839;53.364;-1.204;2023-06-10T04:19:35;32.97;;;12.13;;
19406;SDS011;9839;53.364;-1.204;2023-06-10T04:22:01;26.88;;;11.48;;
19406;SDS011;9839;53.364;-1.204;2023-06-10T04:24:30;22.60;;;10.23;;
19406;SDS011;9839;53.364;-1.204;2023-06-10T04:26:55;30.30;;;12.27;;
19406;SDS011;9839;53.364;-1.204;2023-06-10T04:29:21;31.47;;;11.63;;
19406;SDS011;9839;53.364;-1.204;2023-06-10T04:31:46;28.63;;;10.73;;
19406;SDS011;9839;53.364;-1.204;2023-06-10T04:34:12;34.53;;;11.57;;
19406;SDS011;9839;53.364;-1.204;2023-06-10T04:36:38;31.13;;;11.23;;
19406;SDS011;9839;53.364;-1.204;2023-06-10T04:39:03;23.10;;;11.33;;
19406;SDS011;9839;53.364;-1.204;2023-06-10T04:41:30;32.33;;;11.23;;
19406;SDS011;9839;53.364;-1.204;2023-06-10T04:43:56;42.90;;;11.50;;
19406;SDS011;9839;53.364;-1.204;2023-06-10T04:46:22;35.45;;;11.20;;
19406;SDS011;9839;53.364;-1.204;2023-06-10T04:48:48;33.97;;;11.83;;
19406;SDS011;9839;53.364;-1.204;2023-06-10T04:51:13;27.33;;;11.53;;
19406;SDS011;9839;53.364;-1.204;2023-06-10T04:53:39;33.57;;;13.63;;
19406;SDS011;9839;53.364;-1.204;2023-06-10T04:56:05;35.60;;;13.00;;
19406;SDS011;9839;53.364;-1.204;2023-06-10T04:58:32;35.23;;;12.90;;
19406;SDS011;9839;53.364;-1.204;2023-06-10T05:00:58;41.60;;;13.87;;
19406;SDS011;9839;53.364;-1.204;2023-06-10T05:03:23;36.93;;;13.50;;
19406;SDS011;9839;53.364;-1.204;2023-06-10T05:05:48;35.23;;;13.20;;
19406;SDS011;9839;53.364;-1.204;2023-06-10T05:08:14;29.27;;;12.93;;
19406;SDS011;9839;53.364;-1.204;2023-06-10T05:10:39;38.67;;;15.07;;
19406;SDS011;9839;53.364;-1.204;2023-06-10T05:13:05;37.72;;;12.93;;
19406;SDS011;9839;53.364;-1.204;2023-06-10T05:15:30;34.72;;;14.10;;
19406;SDS011;9839;53.364;-1.204;2023-06-10T05:17:59;33.28;;;14.10;;
19406;SDS011;9839;53.364;-1.204;2023-06-10T05:20:24;33.92;;;13.55;;
19406;SDS011;9839;53.364;-1.204;2023-06-10T05:22:50;37.42;;;15.52;;
19406;SDS011;9839;53.364;-1.204;2023-06-10T05:25:16;33.45;;;14.05;;
19406;SDS011;9839;53.364;-1.204;2023-06-10T05:27:41;36.50;;;13.73;;
19406;SDS011;9839;53.364;-1.204;2023-06-10T05:30:08;38.70;;;13.00;;
19406;SDS011;9839;53.364;-1.204;2023-06-10T05:32:35;30.60;;;12.93;;
19406;SDS011;9839;53.364;-1.204;2023-06-10T05:35:00;27.23;;;12.40;;
19406;SDS011;9839;53.364;-1.204;2023-06-10T05:37:26;22.05;;;10.23;;
19406;SDS011;9839;53.364;-1.204;2023-06-10T05:39:52;32.22;;;11.00;;
19406;SDS011;9839;53.364;-1.204;2023-06-10T05:42:17;30.63;;;10.27;;
19406;SDS011;9839;53.364;-1.204;2023-06-10T05:44:42;24.27;;;10.68;;
19406;SDS011;9839;53.364;-1.204;2023-06-10T05:47:08;27.38;;;10.48;;
19406;SDS011;9839;53.364;-1.204;2023-06-10T05:49:34;25.83;;;10.32;;
19406;SDS011;9839;53.364;-1.204;2023-06-10T05:51:59;22.92;;;9.55;;
19406;SDS011;9839;53.364;-1.204;2023-06-10T05:54:25;24.48;;;10.35;;
19406;SDS011;9839;53.364;-1.204;2023-06-10T05:56:51;23.40;;;11.63;;
19406;SDS011;9839;53.364;-1.204;2023-06-10T05:59:16;27.00;;;9.68;;
19406;SDS011;9839;53.364;-1.204;2023-06-10T06:01:42;25.35;;;10.70;;
19406;SDS011;9839;53.364;-1.204;2023-06-10T06:04:07;25.42;;;9.88;;
19406;SDS011;9839;53.364;-1.204;2023-06-10T06:06:33;26.02;;;9.77;;
19406;SDS011;9839;53.364;-1.204;2023-06-10T06:08:58;28.25;;;10.80;;
19406;SDS011;9839;53.364;-1.204;2023-06-10T06:11:23;32.85;;;10.60;;
19406;SDS011;9839;53.364;-1.204;2023-06-10T06:13:50;27.75;;;10.18;;
19406;SDS011;9839;53.364;-1.204;2023-06-10T06:16:16;26.67;;;9.93;;
19406;SDS011;9839;53.364;-1.204;2023-06-10T06:18:43;21.30;;;9.13;;
19406;SDS011;9839;53.364;-1.204;2023-06-10T06:21:09;18.17;;;9.43;;
19406;SDS011;9839;53.364;-1.204;2023-06-10T06:23:34;20.42;;;9.27;;
19406;SDS011;9839;53.364;-1.204;2023-06-10T06:26:00;22.63;;;8.90;;
19406;SDS011;9839;53.364;-1.204;2023-06-10T06:28:25;25.85;;;9.65;;
19406;SDS011;9839;53.364;-1.204;2023-06-10T06:30:54;18.33;;;9.07;;
19406;SDS011;9839;53.364;-1.204;2023-06-10T06:33:20;23.85;;;9.52;;
19406;SDS011;9839;53.364;-1.204;2023-06-10T06:35:46;23.48;;;8.93;;
19406;SDS011;9839;53.364;-1.204;2023-06-10T06:38:11;22.05;;;9.32;;
19406;SDS011;9839;53.364;-1.204;2023-06-10T06:40:37;15.90;;;7.80;;
19406;SDS011;9839;53.364;-1.204;2023-06-10T06:43:02;17.88;;;8.18;;
19406;SDS011;9839;53.364;-1.204;2023-06-10T06:45:28;12.98;;;7.55;;
19406;SDS011;9839;53.364;-1.204;2023-06-10T06:47:53;22.17;;;9.30;;
19406;SDS011;9839;53.364;-1.204;2023-06-10T06:50:18;23.55;;;9.43;;
19406;SDS011;9839;53.364;-1.204;2023-06-10T06:52:44;23.00;;;8.45;;
19406;SDS011;9839;53.364;-1.204;2023-06-10T06:55:09;13.02;;;7.57;;
19406;SDS011;9839;53.364;-1.204;2023-06-10T06:57:35;15.23;;;7.22;;
19406;SDS011;9839;53.364;-1.204;2023-06-10T07:00:01;18.55;;;7.60;;
19406;SDS011;9839;53.364;-1.204;2023-06-10T07:02:27;16.02;;;7.38;;
19406;SDS011;9839;53.364;-1.204;2023-06-10T07:04:53;16.73;;;7.82;;
19406;SDS011;9839;53.364;-1.204;2023-06-10T07:07:20;15.25;;;7.32;;
19406;SDS011;9839;53.364;-1.204;2023-06-10T07:09:46;18.83;;;8.02;;
19406;SDS011;9839;53.364;-1.204;2023-06-10T07:12:12;20.50;;;7.15;;
19406;SDS011;9839;53.364;-1.204;2023-06-10T07:14:37;14.13;;;7.15;;
19406;SDS011;9839;53.364;-1.204;2023-06-10T07:17:02;18.98;;;7.30;;
19406;SDS011;9839;53.364;-1.204;2023-06-10T07:19:28;21.35;;;7.40;;
19406;SDS011;9839;53.364;-1.204;2023-06-10T07:21:54;17.95;;;6.28;;
19406;SDS011;9839;53.364;-1.204;2023-06-10T07:24:19;16.90;;;7.00;;
19406;SDS011;9839;53.364;-1.204;2023-06-10T07:26:45;16.75;;;6.82;;
19406;SDS011;9839;53.364;-1.204;2023-06-10T07:29:10;14.27;;;6.07;;
19406;SDS011;9839;53.364;-1.204;2023-06-10T07:31:36;16.85;;;6.05;;
19406;SDS011;9839;53.364;-1.204;2023-06-10T07:34:01;12.18;;;6.28;;
19406;SDS011;9839;53.364;-1.204;2023-06-10T07:36:27;15.60;;;6.05;;
19406;SDS011;9839;53.364;-1.204;2023-06-10T07:38:54;18.33;;;6.30;;
19406;SDS011;9839;53.364;-1.204;2023-06-10T07:41:19;15.68;;;6.15;;
19406;SDS011;9839;53.364;-1.204;2023-06-10T07:43:45;20.50;;;6.43;;
19406;SDS011;9839;53.364;-1.204;2023-06-10T07:46:10;17.80;;;6.05;;
19406;SDS011;9839;53.364;-1.204;2023-06-10T07:48:36;15.80;;;5.68;;
19406;SDS011;9839;53.364;-1.204;2023-06-10T07:51:01;12.40;;;5.40;;
19406;SDS011;9839;53.364;-1.204;2023-06-10T07:53:27;16.67;;;6.20;;
19406;SDS011;9839;53.364;-1.204;2023-06-10T07:55:52;13.52;;;5.25;;
19406;SDS011;9839;53.364;-1.204;2023-06-10T07:58:18;15.00;;;5.40;;
19406;SDS011;9839;53.364;-1.204;2023-06-10T08:00:43;17.65;;;5.80;;
19406;SDS011;9839;53.364;-1.204;2023-06-10T08:03:09;15.20;;;5.28;;
19406;SDS011;9839;53.364;-1.204;2023-06-10T08:05:34;14.18;;;5.75;;
19406;SDS011;9839;53.364;-1.204;2023-06-10T08:08:00;14.52;;;5.55;;
19406;SDS011;9839;53.364;-1.204;2023-06-10T08:10:25;14.25;;;5.57;;
19406;SDS011;9839;53.364;-1.204;2023-06-10T08:12:51;16.63;;;5.45;;
19406;SDS011;9839;53.364;-1.204;2023-06-10T08:15:16;11.43;;;5.15;;
19406;SDS011;9839;53.364;-1.204;2023-06-10T08:17:41;13.85;;;5.20;;
19406;SDS011;9839;53.364;-1.204;2023-06-10T08:20:07;14.07;;;5.38;;
19406;SDS011;9839;53.364;-1.204;2023-06-10T08:22:33;16.40;;;5.82;;
19406;SDS011;9839;53.364;-1.204;2023-06-10T08:24:58;16.23;;;5.43;;
19406;SDS011;9839;53.364;-1.204;2023-06-10T08:27:24;19.67;;;5.72;;
19406;SDS011;9839;53.364;-1.204;2023-06-10T08:29:50;14.68;;;6.07;;
19406;SDS011;9839;53.364;-1.204;2023-06-10T08:32:15;18.55;;;5.95;;
19406;SDS011;9839;53.364;-1.204;2023-06-10T08:34:41;17.55;;;6.00;;
19406;SDS011;9839;53.364;-1.204;2023-06-10T08:37:06;12.52;;;5.40;;
19406;SDS011;9839;53.364;-1.204;2023-06-10T08:39:32;12.02;;;5.20;;
19406;SDS011;9839;53.364;-1.204;2023-06-10T08:42:00;10.27;;;4.95;;
19406;SDS011;9839;53.364;-1.204;2023-06-10T08:44:35;14.23;;;5.82;;
19406;SDS011;9839;53.364;-1.204;2023-06-10T08:47:05;13.88;;;5.40;;
19406;SDS011;9839;53.364;-1.204;2023-06-10T08:49:34;13.60;;;6.22;;
19406;SDS011;9839;53.364;-1.204;2023-06-10T08:52:03;16.17;;;5.25;;
19406;SDS011;9839;53.364;-1.204;2023-06-10T08:54:33;16.33;;;5.80;;
19406;SDS011;9839;53.364;-1.204;2023-06-10T08:57:03;15.43;;;5.55;;
19406;SDS011;9839;53.364;-1.204;2023-06-10T08:59:31;14.95;;;7.03;;
19406;SDS011;9839;53.364;-1.204;2023-06-10T09:01:56;14.82;;;5.65;;
19406;SDS011;9839;53.364;-1.204;2023-06-10T09:04:23;12.45;;;5.15;;
19406;SDS011;9839;53.364;-1.204;2023-06-10T09:06:49;15.35;;;5.78;;
19406;SDS011;9839;53.364;-1.204;2023-06-10T09:09:15;12.50;;;5.78;;
19406;SDS011;9839;53.364;-1.204;2023-06-10T09:11:42;11.25;;;5.40;;
19406;SDS011;9839;53.364;-1.204;2023-06-10T09:14:07;18.40;;;6.90;;
19406;SDS011;9839;53.364;-1.204;2023-06-10T09:16:32;18.73;;;5.35;;
19406;SDS011;9839;53.364;-1.204;2023-06-10T09:18:58;14.38;;;6.22;;
19406;SDS011;9839;53.364;-1.204;2023-06-10T09:21:24;15.05;;;5.68;;
19406;SDS011;9839;53.364;-1.204;2023-06-10T09:23:50;8.98;;;5.93;;
19406;SDS011;9839;53.364;-1.204;2023-06-10T09:26:16;10.65;;;5.47;;
19406;SDS011;9839;53.364;-1.204;2023-06-10T09:28:44;14.35;;;5.32;;
19406;SDS011;9839;53.364;-1.204;2023-06-10T09:31:12;17.30;;;5.68;;
19406;SDS011;9839;53.364;-1.204;2023-06-10T09:33:39;18.58;;;5.85;;
19406;SDS011;9839;53.364;-1.204;2023-06-10T09:36:05;14.00;;;5.63;;
19406;SDS011;9839;53.364;-1.204;2023-06-10T09:38:31;20.00;;;5.65;;
19406;SDS011;9839;53.364;-1.204;2023-06-10T09:40:58;9.88;;;5.95;;
19406;SDS011;9839;53.364;-1.204;2023-06-10T09:43:26;17.20;;;6.82;;
19406;SDS011;9839;53.364;-1.204;2023-06-10T09:46:07;16.85;;;6.00;;
19406;SDS011;9839;53.364;-1.204;2023-06-10T09:48:43;16.45;;;6.40;;
19406;SDS011;9839;53.364;-1.204;2023-06-10T09:51:09;17.35;;;6.85;;
19406;SDS011;9839;53.364;-1.204;2023-06-10T09:53:35;23.10;;;6.65;;
19406;SDS011;9839;53.364;-1.204;2023-06-10T09:56:01;14.82;;;5.82;;
19406;SDS011;9839;53.364;-1.204;2023-06-10T09:58:33;19.15;;;6.53;;
19406;SDS011;9839;53.364;-1.204;2023-06-10T10:01:07;20.05;;;7.68;;
19406;SDS011;9839;53.364;-1.204;2023-06-10T10:03:33;19.98;;;5.90;;
19406;SDS011;9839;53.364;-1.204;2023-06-10T10:05:59;15.02;;;6.18;;
19406;SDS011;9839;53.364;-1.204;2023-06-10T10:08:28;18.73;;;6.78;;
19406;SDS011;9839;53.364;-1.204;2023-06-10T10:10:53;21.70;;;6.53;;
19406;SDS011;9839;53.364;-1.204;2023-06-10T10:13:21;15.07;;;6.13;;
19406;SDS011;9839;53.364;-1.204;2023-06-10T10:15:47;16.40;;;6.68;;
19406;SDS011;9839;53.364;-1.204;2023-06-10T10:18:14;12.20;;;6.53;;
19406;SDS011;9839;53.364;-1.204;2023-06-10T10:20:49;23.92;;;7.22;;
19406;SDS011;9839;53.364;-1.204;2023-06-10T10:23:18;12.43;;;5.70;;
19406;SDS011;9839;53.364;-1.204;2023-06-10T10:25:49;14.10;;;6.47;;
19406;SDS011;9839;53.364;-1.204;2023-06-10T10:28:17;19.77;;;6.70;;
19406;SDS011;9839;53.364;-1.204;2023-06-10T10:30:47;16.15;;;7.20;;
19406;SDS011;9839;53.364;-1.204;2023-06-10T10:35:48;13.82;;;6.20;;
19406;SDS011;9839;53.364;-1.204;2023-06-10T10:38:13;14.27;;;6.32;;
19406;SDS011;9839;53.364;-1.204;2023-06-10T10:40:39;13.50;;;7.32;;
19406;SDS011;9839;53.364;-1.204;2023-06-10T10:43:05;14.57;;;7.13;;
19406;SDS011;9839;53.364;-1.204;2023-06-10T10:45:31;21.33;;;6.97;;
19406;SDS011;9839;53.364;-1.204;2023-06-10T10:48:03;13.13;;;6.32;;
19406;SDS011;9839;53.364;-1.204;2023-06-10T10:50:30;17.90;;;6.10;;
19406;SDS011;9839;53.364;-1.204;2023-06-10T10:52:59;18.85;;;6.38;;
19406;SDS011;9839;53.364;-1.204;2023-06-10T10:55:26;21.48;;;6.47;;
19406;SDS011;9839;53.364;-1.204;2023-06-10T10:57:56;20.55;;;7.43;;
19406;SDS011;9839;53.364;-1.204;2023-06-10T11:00:29;23.52;;;6.90;;
19406;SDS011;9839;53.364;-1.204;2023-06-10T11:05:37;18.75;;;6.53;;
19406;SDS011;9839;53.364;-1.204;2023-06-10T11:08:09;17.48;;;6.38;;
19406;SDS011;9839;53.364;-1.204;2023-06-10T11:10:36;15.55;;;6.10;;
19406;SDS011;9839;53.364;-1.204;2023-06-10T11:13:06;17.48;;;7.00;;
19406;SDS011;9839;53.364;-1.204;2023-06-10T11:15:33;20.02;;;6.30;;
19406;SDS011;9839;53.364;-1.204;2023-06-10T11:18:11;15.88;;;6.10;;
19406;SDS011;9839;53.364;-1.204;2023-06-10T11:31:21;14.45;;;6.00;;
19406;SDS011;9839;53.364;-1.204;2023-06-10T11:33:48;13.38;;;6.65;;
19406;SDS011;9839;53.364;-1.204;2023-06-10T11:36:21;15.45;;;6.40;;
19406;SDS011;9839;53.364;-1.204;2023-06-10T11:38:47;15.18;;;6.70;;
19406;SDS011;9839;53.364;-1.204;2023-06-10T11:41:13;16.23;;;7.07;;
19406;SDS011;9839;53.364;-1.204;2023-06-10T11:43:43;14.60;;;6.82;;
19406;SDS011;9839;53.364;-1.204;2023-06-10T11:46:09;16.85;;;7.80;;
19406;SDS011;9839;53.364;-1.204;2023-06-10T11:48:35;18.55;;;8.75;;
19406;SDS011;9839;53.364;-1.204;2023-06-10T11:51:00;14.57;;;7.45;;
19406;SDS011;9839;53.364;-1.204;2023-06-10T11:53:26;23.27;;;7.88;;
19406;SDS011;9839;53.364;-1.204;2023-06-10T11:55:53;15.52;;;7.10;;
19406;SDS011;9839;53.364;-1.204;2023-06-10T11:58:21;18.98;;;7.75;;
19406;SDS011;9839;53.364;-1.204;2023-06-10T12:00:51;15.90;;;7.45;;
19406;SDS011;9839;53.364;-1.204;2023-06-10T12:03:18;20.05;;;7.25;;
19406;SDS011;9839;53.364;-1.204;2023-06-10T12:05:54;15.00;;;7.65;;
19406;SDS011;9839;53.364;-1.204;2023-06-10T12:08:21;18.08;;;7.10;;
19406;SDS011;9839;53.364;-1.204;2023-06-10T12:10:46;17.38;;;7.90;;
19406;SDS011;9839;53.364;-1.204;2023-06-10T12:13:12;18.92;;;7.97;;
19406;SDS011;9839;53.364;-1.204;2023-06-10T12:15:37;22.33;;;6.97;;
19406;SDS011;9839;53.364;-1.204;2023-06-10T12:18:03;19.75;;;7.45;;
19406;SDS011;9839;53.364;-1.204;2023-06-10T12:20:29;23.90;;;8.68;;
19406;SDS011;9839;53.364;-1.204;2023-06-10T12:22:58;18.92;;;7.20;;
19406;SDS011;9839;53.364;-1.204;2023-06-10T12:25:25;15.40;;;7.68;;
19406;SDS011;9839;53.364;-1.204;2023-06-10T12:27:52;13.38;;;7.10;;
19406;SDS011;9839;53.364;-1.204;2023-06-10T12:30:20;19.83;;;7.63;;
19406;SDS011;9839;53.364;-1.204;2023-06-10T12:32:46;14.75;;;6.63;;
19406;SDS011;9839;53.364;-1.204;2023-06-10T12:35:13;24.92;;;7.93;;
19406;SDS011;9839;53.364;-1.204;2023-06-10T12:37:42;12.15;;;6.18;;
19406;SDS011;9839;53.364;-1.204;2023-06-10T12:40:08;12.48;;;6.88;;
19406;SDS011;9839;53.364;-1.204;2023-06-10T12:42:35;12.70;;;6.82;;
19406;SDS011;9839;53.364;-1.204;2023-06-10T12:45:01;12.32;;;6.22;;
19406;SDS011;9839;53.364;-1.204;2023-06-10T12:47:30;16.40;;;7.40;;
19406;SDS011;9839;53.364;-1.204;2023-06-10T12:49:58;14.45;;;6.93;;
19406;SDS011;9839;53.364;-1.204;2023-06-10T12:52:24;13.15;;;6.80;;
19406;SDS011;9839;53.364;-1.204;2023-06-10T12:54:50;11.15;;;6.28;;
19406;SDS011;9839;53.364;-1.204;2023-06-10T12:57:16;11.35;;;5.97;;
19406;SDS011;9839;53.364;-1.204;2023-06-10T12:59:42;15.27;;;6.35;;
19406;SDS011;9839;53.364;-1.204;2023-06-10T13:02:15;11.38;;;6.68;;
19406;SDS011;9839;53.364;-1.204;2023-06-10T13:04:40;16.20;;;6.80;;
19406;SDS011;9839;53.364;-1.204;2023-06-10T13:07:07;11.90;;;6.32;;
19406;SDS011;9839;53.364;-1.204;2023-06-10T13:09:32;10.68;;;6.47;;
19406;SDS011;9839;53.364;-1.204;2023-06-10T13:11:58;13.18;;;6.25;;
19406;SDS011;9839;53.364;-1.204;2023-06-10T13:14:24;14.13;;;6.68;;
19406;SDS011;9839;53.364;-1.204;2023-06-10T13:16:50;12.02;;;6.40;;
19406;SDS011;9839;53.364;-1.204;2023-06-10T13:19:15;11.73;;;6.10;;
19406;SDS011;9839;53.364;-1.204;2023-06-10T13:21:41;11.82;;;6.35;;
19406;SDS011;9839;53.364;-1.204;2023-06-10T13:24:06;9.10;;;6.65;;
19406;SDS011;9839;53.364;-1.204;2023-06-10T13:26:32;9.40;;;6.78;;
19406;SDS011;9839;53.364;-1.204;2023-06-10T13:28:57;9.80;;;6.30;;
19406;SDS011;9839;53.364;-1.204;2023-06-10T13:31:23;11.85;;;7.07;;
19406;SDS011;9839;53.364;-1.204;2023-06-10T13:33:48;9.88;;;6.45;;
19406;SDS011;9839;53.364;-1.204;2023-06-10T13:36:13;10.63;;;7.05;;
19406;SDS011;9839;53.364;-1.204;2023-06-10T13:38:39;14.27;;;6.70;;
19406;SDS011;9839;53.364;-1.204;2023-06-10T13:41:05;8.95;;;6.05;;
19406;SDS011;9839;53.364;-1.204;2023-06-10T13:43:31;10.65;;;6.55;;
19406;SDS011;9839;53.364;-1.204;2023-06-10T13:45:56;10.18;;;6.97;;
19406;SDS011;9839;53.364;-1.204;2023-06-10T13:48:21;10.65;;;6.50;;
19406;SDS011;9839;53.364;-1.204;2023-06-10T13:50:47;11.55;;;7.25;;
19406;SDS011;9839;53.364;-1.204;2023-06-10T13:53:12;9.20;;;6.03;;
19406;SDS011;9839;53.364;-1.204;2023-06-10T13:55:38;8.30;;;6.18;;
19406;SDS011;9839;53.364;-1.204;2023-06-10T13:58:03;9.75;;;6.50;;
19406;SDS011;9839;53.364;-1.204;2023-06-10T14:00:29;9.95;;;5.93;;
19406;SDS011;9839;53.364;-1.204;2023-06-10T14:02:54;6.95;;;6.20;;
19406;SDS011;9839;53.364;-1.204;2023-06-10T14:05:20;10.07;;;6.53;;
19406;SDS011;9839;53.364;-1.204;2023-06-10T14:07:45;8.65;;;6.68;;
19406;SDS011;9839;53.364;-1.204;2023-06-10T14:10:11;7.63;;;6.05;;
19406;SDS011;9839;53.364;-1.204;2023-06-10T14:12:37;10.60;;;6.53;;
19406;SDS011;9839;53.364;-1.204;2023-06-10T14:15:02;15.48;;;6.32;;
19406;SDS011;9839;53.364;-1.204;2023-06-10T14:17:28;10.77;;;6.70;;
19406;SDS011;9839;53.364;-1.204;2023-06-10T14:19:53;7.78;;;6.43;;
19406;SDS011;9839;53.364;-1.204;2023-06-10T14:22:19;16.17;;;6.82;;
19406;SDS011;9839;53.364;-1.204;2023-06-10T14:24:44;10.55;;;6.57;;
19406;SDS011;9839;53.364;-1.204;2023-06-10T14:27:09;11.00;;;6.65;;
19406;SDS011;9839;53.364;-1.204;2023-06-10T14:29:35;11.68;;;6.82;;
19406;SDS011;9839;53.364;-1.204;2023-06-10T14:32:00;10.40;;;6.10;;
19406;SDS011;9839;53.364;-1.204;2023-06-10T14:34:26;19.55;;;6.50;;
19406;SDS011;9839;53.364;-1.204;2023-06-10T14:36:54;10.57;;;6.43;;
19406;SDS011;9839;53.364;-1.204;2023-06-10T14:39:20;11.25;;;6.40;;
19406;SDS011;9839;53.364;-1.204;2023-06-10T14:41:45;11.07;;;6.68;;
19406;SDS011;9839;53.364;-1.204;2023-06-10T14:44:11;11.93;;;6.18;;